Time;durP1;ratioP1;P1;durP2;ratioP2;P2;SDS_P1;SDS_P2;PMS_P1;PMS_P2;Temp;Humidity;BMP_temperature;BMP_pressure;BME280_temperature;BME280_humidity;BME280_pressure;Samples;Min_cycle;Max_cycle;Signal;HPM_P1;HPM_P2
2023/04/04 00:01:15;;;;;;;3.30;2.40;;;22.50;54.00;;;;;;222324;1263;22630;-47
2023/04/04 00:06:19;;;;;;;3.20;2.40;;;22.90;53.50;;;;;;222298;1255;24263;-48
2023/04/04 00:11:25;;;;;;;5.50;2.80;;;23.00;53.10;;;;;;221994;1264;22521;-48
2023/04/04 00:16:29;;;;;;;3.10;2.40;;;23.10;52.80;;;;;;222415;1264;25388;-49
2023/04/04 00:21:35;;;;;;;6.10;2.50;;;23.20;52.50;;;;;;222556;1255;22522;-48
2023/04/04 00:26:39;;;;;;;4.20;2.60;;;23.10;52.10;;;;;;222097;1257;22634;-48
2023/04/04 00:31:44;;;;;;;3.90;2.70;;;23.20;52.10;;;;;;222250;1255;26608;-45
2023/04/04 00:36:48;;;;;;;4.10;2.90;;;23.20;52.20;;;;;;223456;1264;25389;-44
2023/04/04 00:41:53;;;;;;;3.80;2.70;;;23.30;51.90;;;;;;222374;1254;24238;-47
2023/04/04 00:46:57;;;;;;;3.80;2.40;;;23.30;51.90;;;;;;222360;1254;22775;-46
2023/04/04 00:52:01;;;;;;;3.60;2.50;;;23.30;51.80;;;;;;222189;1264;22521;-47
2023/04/04 00:57:07;;;;;;;2.50;2.30;;;23.20;51.90;;;;;;222475;1254;25304;-51
2023/04/04 01:02:13;;;;;;;3.40;2.40;;;23.30;51.90;;;;;;222519;1255;22504;-53
2023/04/04 01:07:18;;;;;;;3.70;2.50;;;23.30;52.20;;;;;;222031;1267;23915;-45
2023/04/04 01:12:23;;;;;;;3.00;2.40;;;23.30;51.80;;;;;;222324;1263;23873;-49
2023/04/04 01:17:28;;;;;;;3.10;2.30;;;23.30;51.80;;;;;;222293;1254;22524;-50
2023/04/04 01:22:33;;;;;;;2.90;2.50;;;23.30;51.80;;;;;;222297;1264;24458;-46
2023/04/04 01:27:38;;;;;;;2.70;2.10;;;23.40;51.80;;;;;;222588;1268;25434;-47
2023/04/04 01:32:56;;;;;;;3.00;2.30;;;23.40;51.70;;;;;;222195;1261;25785;-47
2023/04/04 01:38:19;;;;;;;2.30;2.00;;;23.50;51.60;;;;;;222284;1262;22991;-50
2023/04/04 01:43:23;;;;;;;3.80;2.60;;;23.50;51.80;;;;;;224170;1253;22578;-49
2023/04/04 01:48:28;;;;;;;3.40;2.90;;;23.60;51.20;;;;;;222179;1263;22519;-51
2023/04/04 01:53:36;;;;;;;2.80;2.40;;;23.60;51.30;;;;;;222505;1267;22597;-53
2023/04/04 01:58:40;;;;;;;3.50;2.20;;;23.40;51.60;;;;;;222291;1263;22659;-51
2023/04/04 02:03:46;;;;;;;2.80;2.30;;;23.20;52.10;;;;;;222444;1254;24099;-45
2023/04/04 02:08:50;;;;;;;2.40;2.10;;;23.20;52.00;;;;;;222217;1264;26619;-52
2023/04/04 02:13:56;;;;;;;3.30;2.30;;;23.10;52.20;;;;;;222212;1254;22945;-47
2023/04/04 02:19:02;;;;;;;3.80;2.30;;;23.00;52.50;;;;;;222184;1254;24212;-47
2023/04/04 02:24:11;;;;;;;2.50;2.30;;;23.00;52.90;;;;;;222225;1254;22656;-47
2023/04/04 02:29:17;;;;;;;3.70;2.40;;;22.90;52.50;;;;;;222549;1254;22629;-44
2023/04/04 02:34:21;;;;;;;4.90;2.70;;;22.80;52.70;;;;;;222342;1256;22526;-47
2023/04/04 02:39:26;;;;;;;3.30;2.40;;;22.70;52.80;;;;;;222512;1262;25229;-50
2023/04/04 02:44:31;;;;;;;2.50;2.30;;;22.60;53.00;;;;;;222601;1267;22515;-47
2023/04/04 02:49:36;;;;;;;2.30;2.10;;;22.50;53.30;;;;;;222645;1253;22503;-47
2023/04/04 02:54:40;;;;;;;2.40;2.20;;;22.50;53.10;;;;;;222527;1254;22514;-47
2023/04/04 02:59:45;;;;;;;3.00;2.20;;;22.40;53.30;;;;;;222651;1262;25212;-48
2023/04/04 03:04:49;;;;;;;3.10;2.10;;;22.40;53.40;;;;;;222417;1263;23283;-46
2023/04/04 03:09:53;;;;;;;2.40;2.10;;;22.30;53.40;;;;;;222374;1256;24083;-50
2023/04/04 03:14:57;;;;;;;2.70;2.20;;;22.20;53.50;;;;;;222326;1255;22505;-49
2023/04/04 03:20:01;;;;;;;3.10;2.30;;;22.10;53.60;;;;;;222404;1256;22512;-47
2023/04/04 03:25:06;;;;;;;2.60;2.40;;;22.10;53.60;;;;;;222400;1254;22494;-51
2023/04/04 03:30:11;;;;;;;3.00;1.90;;;22.10;54.00;;;;;;222423;1255;22559;-44
2023/04/04 03:35:15;;;;;;;3.70;2.40;;;22.00;54.10;;;;;;222084;1262;22529;-49
2023/04/04 03:40:19;;;;;;;1.70;1.50;;;21.90;53.90;;;;;;222303;1246;22509;-53
2023/04/04 03:45:24;;;;;;;2.30;2.00;;;21.90;54.20;;;;;;222185;1265;22521;-46
2023/04/04 03:50:29;;;;;;;2.30;2.10;;;22.10;53.60;;;;;;222454;1254;24236;-47
2023/04/04 03:55:33;;;;;;;2.30;2.10;;;22.40;53.30;;;;;;222557;1263;24385;-48
2023/04/04 04:00:38;;;;;;;2.10;1.90;;;22.70;52.70;;;;;;222180;1262;22530;-50
2023/04/04 04:05:42;;;;;;;3.10;1.80;;;23.00;52.00;;;;;;222277;1262;22519;-51
2023/04/04 04:10:47;;;;;;;2.80;1.80;;;23.10;51.50;;;;;;222391;1267;22515;-44
2023/04/04 04:15:53;;;;;;;2.10;1.80;;;23.10;51.20;;;;;;222187;1260;22637;-50
2023/04/04 04:20:58;;;;;;;3.00;2.20;;;23.10;51.30;;;;;;222168;1265;22624;-47
2023/04/04 04:26:05;;;;;;;3.00;2.40;;;23.20;51.40;;;;;;222232;1254;22530;-47
2023/04/04 04:31:09;;;;;;;2.10;1.80;;;23.10;51.00;;;;;;222374;1254;24336;-47
2023/04/04 04:36:19;;;;;;;3.00;2.10;;;23.20;51.10;;;;;;222200;1255;22709;-47
2023/04/04 04:41:30;;;;;;;2.90;1.90;;;23.10;51.20;;;;;;222059;1254;25568;-47
2023/04/04 04:46:35;;;;;;;2.00;1.80;;;23.20;51.80;;;;;;222219;1263;25343;-44
2023/04/04 04:51:45;;;;;;;2.70;2.10;;;23.20;51.20;;;;;;222146;1264;24086;-46
2023/04/04 04:56:51;;;;;;;2.00;1.80;;;23.20;51.10;;;;;;222014;1270;24221;-49
2023/04/04 05:01:56;;;;;;;3.10;1.70;;;23.20;51.00;;;;;;222063;1263;23898;-46
2023/04/04 05:07:01;;;;;;;2.70;1.90;;;23.30;51.00;;;;;;222218;1255;24342;-45
2023/04/04 05:12:06;;;;;;;3.10;2.30;;;23.30;50.70;;;;;;222238;1255;25629;-46
2023/04/04 05:17:15;;;;;;;2.90;2.10;;;23.30;50.40;;;;;;222221;1264;23006;-47
2023/04/04 05:22:20;;;;;;;3.30;2.10;;;23.40;50.00;;;;;;222255;1267;24213;-47
2023/04/04 05:27:26;;;;;;;3.80;2.50;;;23.40;49.50;;;;;;222158;1254;24190;-46
2023/04/04 05:32:35;;;;;;;2.80;2.00;;;23.40;49.30;;;;;;222064;1255;22602;-50
2023/04/04 05:37:44;;;;;;;6.10;2.80;;;23.40;49.80;;;;;;222125;1268;24209;-47
2023/04/04 05:42:57;;;;;;;2.50;2.30;;;23.40;49.30;;;;;;222520;1262;22529;-48
2023/04/04 05:48:07;;;;;;;2.60;2.10;;;23.50;49.10;;;;;;222255;1262;22598;-45
2023/04/04 05:53:18;;;;;;;2.10;1.70;;;23.50;49.10;;;;;;222178;1260;22619;-45
2023/04/04 05:58:25;;;;;;;3.20;2.30;;;23.60;49.10;;;;;;222048;1256;22523;-51
2023/04/04 06:03:31;;;;;;;5.40;3.00;;;23.50;49.30;;;;;;222873;1255;24223;-58
2023/04/04 06:08:36;;;;;;;2.90;2.30;;;23.40;49.70;;;;;;222462;1253;22555;-54
2023/04/04 06:13:55;;;;;;;6.90;2.20;;;23.30;49.80;;;;;;222282;1263;22511;-54
2023/04/04 06:19:00;;;;;;;2.70;2.00;;;23.20;50.60;;;;;;222573;1255;22505;-55
2023/04/04 06:24:06;;;;;;;3.90;2.20;;;23.10;51.00;;;;;;222393;1246;22622;-54
2023/04/04 06:29:10;;;;;;;6.40;2.20;;;23.00;51.00;;;;;;222067;1262;180269;-54
2023/04/04 06:34:20;;;;;;;11.60;3.00;;;22.90;52.00;;;;;;222198;1255;22566;-51
2023/04/04 06:39:35;;;;;;;12.00;2.30;;;22.80;52.20;;;;;;222265;1255;24193;-52
2023/04/04 06:44:43;;;;;;;4.10;2.20;;;23.00;52.30;;;;;;222279;1255;22623;-53
2023/04/04 06:49:47;;;;;;;12.70;2.40;;;23.10;52.30;;;;;;222230;1255;22530;-54
2023/04/04 06:54:52;;;;;;;4.00;2.20;;;22.90;52.30;;;;;;222549;1254;25394;-54
2023/04/04 06:59:56;;;;;;;9.20;2.80;;;22.90;52.40;;;;;;222250;1260;25344;-51
2023/04/04 07:05:04;;;;;;;7.40;2.40;;;22.90;52.60;;;;;;222442;1260;22630;-54
2023/04/04 07:10:09;;;;;;;9.80;2.50;;;22.70;52.50;;;;;;222437;1260;22523;-54
2023/04/04 07:15:13;;;;;;;11.10;2.40;;;22.60;52.70;;;;;;222341;1262;25384;-51
2023/04/04 07:20:18;;;;;;;5.50;2.30;;;22.50;53.00;;;;;;222193;1260;25288;-51
2023/04/04 07:25:23;;;;;;;6.10;2.10;;;22.40;52.80;;;;;;223149;1262;25477;-51
2023/04/04 07:30:29;;;;;;;8.10;2.80;;;22.30;52.80;;;;;;222199;1256;25262;-54
2023/04/04 07:35:34;;;;;;;3.60;2.80;;;22.30;51.70;;;;;;222543;1255;23144;-55
2023/04/04 07:40:38;;;;;;;4.40;2.90;;;22.20;51.80;;;;;;222440;1256;24165;-54
2023/04/04 07:45:43;;;;;;;10.60;3.60;;;22.10;52.10;;;;;;222316;1257;24254;-52
2023/04/04 07:50:48;;;;;;;5.10;2.70;;;22.00;52.40;;;;;;222374;1256;22544;-53
2023/04/04 07:55:52;;;;;;;5.40;3.30;;;21.90;52.60;;;;;;222083;1262;22513;-55
2023/04/04 08:00:56;;;;;;;6.40;3.00;;;21.80;53.10;;;;;;222398;1255;24443;-51
2023/04/04 08:06:00;;;;;;;7.40;3.30;;;21.80;52.70;;;;;;222058;1264;22501;-53
2023/04/04 08:11:04;;;;;;;9.80;3.70;;;21.70;52.50;;;;;;222381;1256;22517;-55
2023/04/04 08:16:09;;;;;;;7.20;3.60;;;21.70;52.30;;;;;;222315;1260;23017;-56
2023/04/04 08:21:12;;;;;;;9.30;3.80;;;21.80;52.00;;;;;;222382;1262;25285;-54
2023/04/04 08:26:17;;;;;;;7.70;3.30;;;21.80;52.10;;;;;;222364;1255;22554;-56
2023/04/04 08:31:22;;;;;;;10.50;3.70;;;21.80;52.10;;;;;;222110;1262;22519;-56
2023/04/04 08:36:26;;;;;;;11.30;3.60;;;21.80;52.50;;;;;;222246;1253;25349;-53
2023/04/04 08:41:34;;;;;;;11.60;3.80;;;21.70;52.10;;;;;;222302;1253;22510;-54
2023/04/04 08:46:40;;;;;;;9.10;3.10;;;21.80;52.20;;;;;;222364;1261;22567;-54
2023/04/04 08:51:45;;;;;;;6.60;3.20;;;22.30;50.80;;;;;;222305;1254;23915;-54
2023/04/04 08:56:49;;;;;;;5.50;3.10;;;22.60;50.10;;;;;;222359;1257;25291;-58
2023/04/04 09:02:07;;;;;;;6.10;3.00;;;22.80;49.60;;;;;;222156;1265;25022;-56
2023/04/04 09:07:13;;;;;;;7.50;3.40;;;23.00;49.50;;;;;;222251;1255;22515;-54
2023/04/04 09:12:17;;;;;;;5.20;3.60;;;23.10;50.20;;;;;;222304;1263;24219;-56
2023/04/04 09:17:22;;;;;;;8.40;4.00;;;23.20;50.70;;;;;;222317;1260;22518;-56
2023/04/04 09:22:26;;;;;;;10.10;4.40;;;23.20;51.40;;;;;;222273;1260;22609;-57
2023/04/04 09:27:32;;;;;;;7.50;3.30;;;23.20;50.90;;;;;;222289;1262;22597;-55
2023/04/04 09:32:37;;;;;;;6.30;3.80;;;23.30;50.60;;;;;;222275;1260;24310;-54
2023/04/04 09:37:43;;;;;;;8.30;3.70;;;23.30;50.70;;;;;;222384;1265;22624;-55
2023/04/04 09:42:47;;;;;;;8.20;3.80;;;23.30;50.50;;;;;;222358;1259;22513;-52
2023/04/04 09:47:52;;;;;;;7.00;3.20;;;23.40;49.90;;;;;;222363;1260;22805;-55
2023/04/04 09:52:59;;;;;;;7.80;3.30;;;23.50;49.60;;;;;;222466;1262;23774;-53
2023/04/04 09:58:15;;;;;;;5.70;2.60;;;23.50;49.50;;;;;;222378;1254;22603;-56
2023/04/04 10:03:22;;;;;;;5.90;3.20;;;23.30;50.00;;;;;;222307;1254;25313;-54
2023/04/04 10:08:28;;;;;;;5.50;2.70;;;23.10;50.50;;;;;;222301;1262;22860;-56
2023/04/04 10:13:35;;;;;;;7.00;2.80;;;23.00;50.90;;;;;;222309;1262;22533;-55
2023/04/04 10:18:39;;;;;;;9.10;2.90;;;22.80;51.00;;;;;;222092;1260;25283;-57
2023/04/04 10:23:53;;;;;;;5.00;3.20;;;22.90;50.60;;;;;;222341;1260;25227;-49
2023/04/04 10:28:57;;;;;;;5.00;2.50;;;22.90;50.60;;;;;;222398;1256;22591;-54
2023/04/04 10:34:11;;;;;;;4.20;2.80;;;22.90;50.50;;;;;;222267;1262;24378;-52
2023/04/04 10:39:36;;;;;;;5.70;2.90;;;22.80;50.30;;;;;;222380;1262;23941;-52
2023/04/04 10:44:43;;;;;;;5.60;3.00;;;22.80;50.30;;;;;;222247;1262;22517;-52
2023/04/04 10:49:49;;;;;;;4.80;2.90;;;22.70;50.50;;;;;;222057;1254;22988;-51
2023/04/04 10:55:07;;;;;;;5.10;2.60;;;22.60;50.60;;;;;;222387;1262;22526;-54
2023/04/04 11:00:13;;;;;;;4.70;2.80;;;22.60;50.70;;;;;;222294;1261;24356;-50
2023/04/04 11:05:33;;;;;;;8.70;3.10;;;22.50;50.40;;;;;;222261;1259;23893;-54
2023/04/04 11:10:40;;;;;;;5.20;2.70;;;22.60;50.50;;;;;;222109;1261;22520;-56
2023/04/04 11:15:59;;;;;;;5.30;3.00;;;22.60;50.90;;;;;;222310;1263;22521;-54
2023/04/04 11:21:06;;;;;;;4.60;2.90;;;22.60;50.90;;;;;;222277;1265;25567;-49
2023/04/04 11:26:10;;;;;;;6.20;2.40;;;22.50;51.40;;;;;;222396;1262;22513;-53
2023/04/04 11:31:22;;;;;;;7.20;2.90;;;22.30;51.00;;;;;;222410;1262;22547;-53
2023/04/04 11:36:35;;;;;;;4.50;2.80;;;22.30;51.10;;;;;;222308;1259;24395;-53
2023/04/04 11:41:56;;;;;;;4.50;2.50;;;22.20;51.20;;;;;;222318;1263;26686;-52
2023/04/04 11:47:08;;;;;;;2.60;2.20;;;22.20;51.40;;;;;;222229;1256;22542;-56
2023/04/04 11:52:13;;;;;;;;;;;22.10;51.40;;;;;;222243;1265;25905;-53
2023/04/04 11:57:23;;;;;;;2.70;2.30;;;22.10;51.50;;;;;;222168;1262;22662;-49
2023/04/04 12:02:35;;;;;;;5.60;2.30;;;22.00;51.30;;;;;;222188;1264;22535;-55
2023/04/04 12:07:47;;;;;;;2.60;2.10;;;22.00;51.40;;;;;;222195;1257;24175;-49
2023/04/04 12:12:57;;;;;;;5.10;2.50;;;22.00;51.20;;;;;;222347;1261;24079;-50
2023/04/04 12:18:07;;;;;;;3.50;2.20;;;21.90;51.20;;;;;;222205;1265;22588;-48
2023/04/04 12:23:14;;;;;;;3.90;2.50;;;22.00;51.60;;;;;;222280;1255;22519;-51
2023/04/04 12:28:22;;;;;;;3.50;2.50;;;21.90;51.50;;;;;;226345;1265;23014;-48
2023/04/04 12:33:39;;;;;;;2.90;1.90;;;22.00;50.90;;;;;;222274;1256;22517;-52
2023/04/04 12:39:07;;;;;;;2.80;2.10;;;21.90;51.00;;;;;;222452;1262;24607;-47
2023/04/04 12:44:46;;;;;;;2.50;2.30;;;21.90;51.30;;;;;;222333;1260;25777;-55
2023/04/04 12:49:55;;;;;;;4.70;2.00;;;21.80;51.30;;;;;;222356;1262;24365;-53
2023/04/04 12:55:08;;;;;;;3.20;2.10;;;21.80;51.50;;;;;;222418;1263;24225;-48
2023/04/04 13:00:13;;;;;;;2.30;1.90;;;21.70;51.50;;;;;;222106;1258;26494;-50
2023/04/04 13:05:24;;;;;;;2.60;2.00;;;21.70;51.40;;;;;;222343;1260;25338;-50
2023/04/04 13:10:29;;;;;;;2.70;1.90;;;22.10;50.60;;;;;;222450;1265;24224;-50
2023/04/04 13:16:00;;;;;;;3.30;2.30;;;22.50;49.90;;;;;;222295;1256;22541;-49
2023/04/04 13:21:08;;;;;;;2.80;2.50;;;22.70;49.40;;;;;;222331;1253;22511;-50
2023/04/04 13:26:12;;;;;;;3.20;1.70;;;22.90;48.90;;;;;;222528;1265;24908;-49
2023/04/04 13:31:16;;;;;;;4.00;2.00;;;23.00;48.70;;;;;;222360;1263;22603;-52
2023/04/04 13:36:20;;;;;;;3.10;2.00;;;23.10;48.50;;;;;;222247;1259;22637;-54
2023/04/04 13:41:26;;;;;;;2.20;1.60;;;23.20;48.70;;;;;;222560;1262;24369;-54
2023/04/04 13:46:30;;;;;;;2.80;2.00;;;23.30;48.30;;;;;;222149;1246;22633;-54
2023/04/04 13:51:34;;;;;;;2.20;1.90;;;23.30;48.20;;;;;;222310;1257;23932;-47
2023/04/04 13:56:39;;;;;;;1.90;1.80;;;23.30;48.00;;;;;;222471;1255;22602;-47
2023/04/04 14:01:43;;;;;;;2.10;1.80;;;23.40;48.00;;;;;;222438;1263;22530;-55
2023/04/04 14:06:48;;;;;;;2.00;1.60;;;23.40;48.00;;;;;;222333;1260;24184;-58
2023/04/04 14:11:52;;;;;;;3.10;2.00;;;23.50;47.70;;;;;;222536;1264;22512;-54
2023/04/04 14:16:56;;;;;;;4.90;2.20;;;23.60;48.10;;;;;;222106;1264;22601;-50
2023/04/04 14:22:01;;;;;;;3.60;2.60;;;23.50;47.70;;;;;;223445;1258;24146;-53
2023/04/04 14:27:05;;;;;;;2.40;2.20;;;23.40;47.10;;;;;;222396;1259;22651;-55
2023/04/04 14:32:10;;;;;;;3.20;2.50;;;23.30;47.30;;;;;;222148;1265;22579;-54
2023/04/04 14:37:15;;;;;;;2.80;2.40;;;23.10;47.50;;;;;;222318;1249;22595;-51
2023/04/04 14:42:20;;;;;;;2.40;2.20;;;23.10;47.70;;;;;;222086;1254;22508;-56
2023/04/04 14:47:25;;;;;;;4.90;2.60;;;23.10;46.60;;;;;;222424;1262;25300;-52
2023/04/04 14:52:30;;;;;;;4.00;3.00;;;23.00;46.20;;;;;;222356;1265;25265;-53
2023/04/04 14:57:34;;;;;;;5.30;2.80;;;22.80;46.40;;;;;;222078;1257;22533;-55
2023/04/04 15:03:00;;;;;;;9.50;2.70;;;22.70;46.20;;;;;;222298;1262;24391;-53
2023/04/04 15:08:11;;;;;;;5.30;3.00;;;22.70;45.50;;;;;;222231;1265;24186;-56
2023/04/04 15:13:19;;;;;;;5.00;2.80;;;22.70;45.30;;;;;;222193;1263;24313;-57
2023/04/04 15:18:24;;;;;;;6.60;2.80;;;22.70;45.50;;;;;;222272;1265;24227;-57
2023/04/04 15:23:28;;;;;;;6.20;3.40;;;22.60;45.40;;;;;;222048;1262;23905;-53
2023/04/04 15:28:32;;;;;;;5.40;2.60;;;22.60;45.40;;;;;;224463;1262;22515;-58
2023/04/04 15:33:39;;;;;;;3.90;2.70;;;22.60;45.70;;;;;;222332;1263;23891;-54
2023/04/04 15:38:49;;;;;;;4.70;2.80;;;22.50;46.40;;;;;;222335;1263;24369;-51
2023/04/04 15:43:53;;;;;;;12.60;3.30;;;22.50;47.20;;;;;;222210;1263;24225;-58
2023/04/04 15:48:58;;;;;;;5.10;2.80;;;22.50;47.20;;;;;;222069;1255;22634;-53
2023/04/04 15:54:02;;;;;;;6.30;3.10;;;22.50;47.70;;;;;;222494;1263;25649;-54
2023/04/04 15:59:07;;;;;;;7.80;2.70;;;22.40;47.40;;;;;;222171;1249;22560;-53
2023/04/04 16:04:13;;;;;;;3.90;2.50;;;22.30;47.60;;;;;;222459;1263;24295;-55
2023/04/04 16:09:20;;;;;;;3.70;2.60;;;22.40;47.70;;;;;;222305;1259;22589;-52
2023/04/04 16:14:26;;;;;;;5.50;3.00;;;22.20;47.90;;;;;;222376;1268;24157;-51
2023/04/04 16:19:31;;;;;;;4.70;2.90;;;22.20;48.30;;;;;;222359;1263;22527;-52
2023/04/04 16:24:36;;;;;;;7.90;2.70;;;22.10;48.40;;;;;;222181;1255;24355;-54
2023/04/04 16:29:40;;;;;;;7.30;2.70;;;22.20;48.30;;;;;;222328;1261;22514;-50
2023/04/04 16:34:44;;;;;;;12.00;3.00;;;22.10;48.40;;;;;;222280;1254;22504;-54
2023/04/04 16:39:50;;;;;;;4.00;2.60;;;22.10;48.70;;;;;;222237;1267;22814;-52
2023/04/04 16:44:54;;;;;;;6.30;2.50;;;22.10;48.30;;;;;;228025;1255;22524;-60
2023/04/04 16:50:00;;;;;;;6.10;2.60;;;22.20;48.10;;;;;;225021;1254;22523;-54
2023/04/04 16:55:05;;;;;;;3.90;2.30;;;22.20;48.00;;;;;;222599;1265;24207;-59
2023/04/04 17:00:09;;;;;;;5.10;2.30;;;22.20;47.80;;;;;;222443;1263;22520;-54
2023/04/04 17:05:14;;;;;;;8.30;3.20;;;22.10;48.20;;;;;;222330;1246;24216;-49
2023/04/04 17:10:21;;;;;;;5.90;2.60;;;22.00;48.30;;;;;;222696;1256;24190;-51
2023/04/04 17:15:29;;;;;;;8.50;3.70;;;21.90;48.20;;;;;;222321;1262;22512;-55
2023/04/04 17:20:36;;;;;;;3.30;2.30;;;21.90;49.00;;;;;;222497;1255;22511;-55
2023/04/04 17:25:41;;;;;;;4.00;2.50;;;21.90;48.40;;;;;;222395;1247;22536;-54
2023/04/04 17:30:46;;;;;;;4.40;2.40;;;21.80;48.40;;;;;;222532;1262;22816;-52
2023/04/04 17:35:52;;;;;;;11.30;2.70;;;21.80;48.70;;;;;;223643;1261;25613;-50
2023/04/04 17:41:03;;;;;;;5.70;2.50;;;21.80;48.00;;;;;;222172;1262;22520;-56
2023/04/04 17:46:08;;;;;;;7.70;2.40;;;21.70;48.50;;;;;;222521;1260;22603;-54
2023/04/04 17:51:13;;;;;;;9.10;3.20;;;21.60;47.70;;;;;;222487;1263;25335;-54
2023/04/04 17:56:18;;;;;;;4.60;2.40;;;21.80;46.80;;;;;;222233;1269;22626;-52
2023/04/04 18:01:25;;;;;;;4.90;2.40;;;22.30;46.60;;;;;;222266;1265;22527;-54
2023/04/04 18:06:31;;;;;;;5.00;2.70;;;22.60;45.40;;;;;;222208;1267;25245;-51
2023/04/04 18:11:36;;;;;;;5.30;2.80;;;22.80;45.00;;;;;;222227;1262;22753;-53
2023/04/04 18:16:41;;;;;;;3.30;2.50;;;22.90;44.70;;;;;;222237;1266;22637;-55
2023/04/04 18:21:58;;;;;;;2.60;2.40;;;23.00;44.60;;;;;;222306;1266;22527;-54
2023/04/04 18:27:03;;;;;;;4.70;2.50;;;23.10;44.30;;;;;;222223;1254;171404;-53
2023/04/04 18:32:08;;;;;;;3.40;2.70;;;23.10;44.20;;;;;;222331;1263;24219;-49
2023/04/04 18:37:13;;;;;;;6.50;2.50;;;23.20;44.20;;;;;;222387;1264;22751;-50
2023/04/04 18:42:19;;;;;;;6.30;2.90;;;23.20;44.20;;;;;;222356;1254;24234;-50
2023/04/04 18:47:26;;;;;;;4.40;2.40;;;23.20;44.10;;;;;;222239;1255;22644;-51
2023/04/04 18:52:35;;;;;;;4.50;2.90;;;23.20;44.20;;;;;;222209;1260;22615;-52
2023/04/04 18:57:43;;;;;;;6.90;4.50;;;23.10;44.20;;;;;;222485;1269;24769;-58
2023/04/04 19:02:51;;;;;;;5.10;4.60;;;23.10;43.80;;;;;;222265;1269;22525;-54
2023/04/04 19:07:58;;;;;;;4.30;3.90;;;23.10;43.80;;;;;;222186;1263;25334;-55
2023/04/04 19:13:03;;;;;;;7.30;4.40;;;23.20;43.70;;;;;;222602;1261;26622;-52
2023/04/04 19:18:10;;;;;;;4.70;3.90;;;23.20;43.90;;;;;;222186;1267;22509;-52
2023/04/04 19:23:20;;;;;;;7.90;4.90;;;23.10;44.40;;;;;;224942;1269;25258;-51
2023/04/04 19:28:26;;;;;;;6.00;4.30;;;23.20;44.70;;;;;;222432;1262;22511;-50
2023/04/04 19:33:32;;;;;;;6.10;4.40;;;23.30;45.20;;;;;;222250;1250;24259;-48
2023/04/04 19:38:44;;;;;;;5.20;3.90;;;23.40;45.10;;;;;;222433;1254;24222;-52
2023/04/04 19:43:49;;;;;;;6.10;4.50;;;23.40;45.20;;;;;;221888;1264;24187;-54
2023/04/04 19:48:55;;;;;;;6.00;4.30;;;23.40;45.20;;;;;;222276;1264;25437;-51
2023/04/04 19:53:59;;;;;;;25.30;5.90;;;23.40;45.30;;;;;;222364;1254;24192;-52
2023/04/04 19:59:07;;;;;;;9.30;4.50;;;23.40;49.00;;;;;;222165;1257;25268;-52
2023/04/04 20:04:13;;;;;;;12.30;4.60;;;23.20;48.90;;;;;;222456;1262;25587;-52
2023/04/04 20:09:38;;;;;;;13.30;5.00;;;23.10;49.30;;;;;;222291;1267;22634;-58
2023/04/04 20:14:43;;;;;;;10.90;4.60;;;23.00;51.90;;;;;;222281;1254;24331;-51
2023/04/04 20:19:48;;;;;;;13.90;4.70;;;23.10;52.30;;;;;;222506;1257;24422;-54
2023/04/04 20:24:54;;;;;;;10.20;4.40;;;23.00;51.80;;;;;;222331;1254;23925;-55
2023/04/04 20:30:01;;;;;;;16.40;4.40;;;23.00;52.20;;;;;;222479;1254;25310;-55
2023/04/04 20:35:24;;;;;;;7.10;4.40;;;22.90;51.80;;;;;;222319;1262;24221;-56
2023/04/04 20:40:37;;;;;;;9.20;3.90;;;22.80;51.80;;;;;;222416;1254;26513;-56
2023/04/04 20:45:45;;;;;;;9.50;4.80;;;22.50;51.50;;;;;;222413;1257;26640;-52
2023/04/04 20:50:50;;;;;;;9.70;4.40;;;22.50;51.70;;;;;;222586;1255;22520;-49
2023/04/04 20:55:55;;;;;;;6.80;4.30;;;22.40;52.30;;;;;;222356;1264;22528;-49
2023/04/04 21:01:00;;;;;;;15.50;5.70;;;22.30;52.60;;;;;;222492;1246;23871;-52
2023/04/04 21:06:09;;;;;;;19.60;5.10;;;22.30;53.70;;;;;;222333;1254;22599;-51
2023/04/04 21:11:27;;;;;;;15.40;4.70;;;22.50;54.70;;;;;;222364;1254;25428;-51
2023/04/04 21:16:36;;;;;;;11.40;4.60;;;22.40;55.10;;;;;;222426;1254;22594;-50
2023/04/04 21:21:47;;;;;;;7.20;4.30;;;22.40;55.20;;;;;;222399;1248;23879;-49
2023/04/04 21:26:51;;;;;;;7.70;4.00;;;22.30;55.10;;;;;;222289;1255;22525;-50
2023/04/04 21:31:58;;;;;;;10.90;4.60;;;22.40;54.90;;;;;;222400;1264;22516;-50
2023/04/04 21:37:04;;;;;;;12.70;4.60;;;22.30;54.90;;;;;;222246;1254;24527;-51
2023/04/04 21:42:08;;;;;;;8.70;4.30;;;22.30;54.90;;;;;;222248;1252;22525;-53
2023/04/04 21:47:13;;;;;;;11.30;5.20;;;22.20;55.40;;;;;;222581;1264;22627;-50
2023/04/04 21:52:19;;;;;;;10.10;4.40;;;22.00;55.40;;;;;;222343;1254;23024;-51
2023/04/04 21:57:24;;;;;;;9.30;4.60;;;22.00;55.10;;;;;;222260;1264;25217;-53
2023/04/04 22:02:28;;;;;;;9.50;4.30;;;21.90;55.30;;;;;;222218;1263;25319;-52
2023/04/04 22:07:33;;;;;;;7.20;4.30;;;21.90;55.30;;;;;;221933;1257;22527;-53
2023/04/04 22:12:38;;;;;;;9.60;4.30;;;21.80;54.80;;;;;;222348;1264;22649;-57
2023/04/04 22:17:49;;;;;;;6.50;4.70;;;21.80;54.80;;;;;;222483;1263;22529;-50
2023/04/04 22:22:56;;;;;;;8.70;4.30;;;21.80;55.30;;;;;;222280;1258;22638;-52
2023/04/04 22:28:04;;;;;;;7.40;4.50;;;21.80;54.70;;;;;;222259;1260;24192;-50
2023/04/04 22:33:08;;;;;;;10.90;4.40;;;21.80;54.70;;;;;;222466;1262;22508;-55
2023/04/04 22:38:13;;;;;;;11.50;4.60;;;21.70;54.40;;;;;;222425;1262;22651;-52
2023/04/04 22:43:18;;;;;;;8.30;4.50;;;21.70;55.00;;;;;;222308;1261;22531;-45
2023/04/04 22:48:22;;;;;;;5.30;4.20;;;21.60;54.90;;;;;;222551;1254;24243;-42
2023/04/04 22:53:27;;;;;;;7.10;4.30;;;21.60;54.60;;;;;;222585;1249;22662;-43
2023/04/04 22:58:31;;;;;;;6.70;4.30;;;21.60;54.60;;;;;;222483;1256;24268;-43
2023/04/04 23:03:35;;;;;;;8.00;4.30;;;21.50;54.50;;;;;;222455;1251;22674;-46
2023/04/04 23:08:39;;;;;;;7.90;5.40;;;21.50;54.60;;;;;;222511;1253;23918;-44
2023/04/04 23:13:44;;;;;;;7.80;5.10;;;21.50;54.40;;;;;;222370;1254;22500;-44
2023/04/04 23:18:48;;;;;;;6.50;4.70;;;21.50;55.90;;;;;;226531;1263;25391;-44
2023/04/04 23:23:52;;;;;;;8.80;5.30;;;21.90;55.60;;;;;;230117;1269;22144;-45
2023/04/04 23:28:56;;;;;;;6.20;4.80;;;22.30;54.00;;;;;;228431;1263;24333;-45
2023/04/04 23:34:00;;;;;;;6.80;4.40;;;22.60;54.00;;;;;;222182;1263;24745;-43
2023/04/04 23:39:05;;;;;;;5.90;5.00;;;22.40;53.80;;;;;;221970;1254;23520;-44
2023/04/04 23:44:09;;;;;;;6.60;5.00;;;22.30;54.40;;;;;;221927;1254;24206;-43
2023/04/04 23:49:13;;;;;;;5.60;4.30;;;22.30;54.00;;;;;;224843;1262;22515;-44
2023/04/04 23:54:17;;;;;;;7.10;5.00;;;22.30;54.10;;;;;;226273;1260;22737;-43
2023/04/04 23:59:21;;;;;;;7.50;4.50;;;22.40;54.00;;;;;;222324;1255;22508;-44
